createdAt,value
2018-12-18T00:02:00.096Z,14.63
2018-12-18T00:04:28.795Z,15.47
2018-12-18T00:06:57.548Z,16.27
2018-12-18T00:09:26.231Z,14.70
2018-12-18T00:11:59.312Z,14.87
2018-12-18T00:14:25.791Z,13.37
2018-12-18T00:16:54.526Z,15.33
2018-12-18T00:19:23.276Z,15.20
2018-12-18T00:21:51.978Z,15.10
2018-12-18T00:24:21.118Z,14.53
2018-12-18T00:26:49.872Z,14.23
2018-12-18T00:29:18.512Z,11.87
2018-12-18T00:31:47.143Z,14.00
2018-12-18T00:34:15.854Z,13.43
2018-12-18T00:36:44.545Z,14.53
2018-12-18T00:39:14.018Z,14.83
2018-12-18T00:41:43.195Z,15.30
2018-12-18T00:44:11.890Z,13.97
2018-12-18T00:46:40.559Z,15.17
2018-12-18T00:49:09.246Z,15.87
2018-12-18T00:51:37.991Z,13.53
2018-12-18T00:54:06.700Z,13.07
2018-12-18T00:56:35.419Z,13.67
2018-12-18T00:59:04.144Z,13.93
2018-12-18T01:01:32.851Z,13.63
2018-12-18T01:04:01.568Z,14.17
2018-12-18T01:06:30.328Z,12.60
2018-12-18T01:08:59.036Z,13.50
2018-12-18T01:11:27.778Z,12.47
2018-12-18T01:13:56.462Z,14.23
2018-12-18T01:16:25.182Z,13.80
2018-12-18T01:18:53.863Z,13.80
2018-12-18T01:21:22.568Z,13.47
2018-12-18T01:23:51.232Z,13.47
2018-12-18T01:26:19.906Z,14.67
2018-12-18T01:28:48.601Z,13.13
2018-12-18T01:31:17.339Z,11.93
2018-12-18T01:33:46.070Z,12.57
2018-12-18T01:36:14.791Z,12.20
2018-12-18T01:38:43.427Z,13.57
2018-12-18T01:41:12.113Z,14.17
2018-12-18T01:43:40.789Z,12.77
2018-12-18T01:46:09.473Z,12.80
2018-12-18T01:48:38.129Z,13.47
2018-12-18T01:51:06.812Z,14.37
2018-12-18T01:53:35.476Z,12.73
2018-12-18T01:56:04.182Z,13.40
2018-12-18T01:58:33.360Z,12.80
2018-12-18T02:01:02.257Z,13.37
2018-12-18T02:03:31.196Z,14.30
2018-12-18T02:06:00.067Z,12.33
2018-12-18T02:08:28.904Z,13.37
2018-12-18T02:10:57.799Z,12.77
2018-12-18T02:13:26.524Z,14.07
2018-12-18T02:15:55.189Z,12.97
2018-12-18T02:18:23.848Z,13.63
2018-12-18T02:20:52.511Z,12.50
2018-12-18T02:23:21.192Z,12.93
2018-12-18T02:25:49.909Z,12.90
2018-12-18T02:28:18.539Z,13.30
2018-12-18T02:30:47.198Z,13.03
2018-12-18T02:33:15.868Z,12.43
2018-12-18T02:35:44.569Z,12.73
2018-12-18T02:38:13.251Z,13.67
2018-12-18T02:40:41.950Z,11.80
2018-12-18T02:43:10.679Z,13.20
2018-12-18T02:45:39.366Z,12.43
2018-12-18T02:48:08.053Z,13.73
2018-12-18T02:50:36.786Z,13.23
2018-12-18T02:53:05.517Z,12.17
2018-12-18T02:55:34.178Z,13.67
2018-12-18T02:58:02.877Z,13.07
2018-12-18T03:00:31.779Z,13.17
2018-12-18T03:03:00.489Z,13.77
2018-12-18T03:05:29.137Z,12.20
2018-12-18T03:07:57.866Z,13.70
2018-12-18T03:10:26.558Z,13.33
2018-12-18T03:12:55.285Z,13.93
2018-12-18T03:15:23.994Z,15.17
2018-12-18T03:17:53.768Z,14.67
2018-12-18T03:20:22.883Z,15.03
2018-12-18T03:22:51.557Z,14.83
2018-12-18T03:25:20.258Z,13.40
2018-12-18T03:27:48.896Z,14.37
2018-12-18T03:30:17.714Z,15.17
2018-12-18T03:32:50.488Z,15.27
2018-12-18T03:35:19.220Z,15.47
2018-12-18T03:37:47.881Z,15.27
2018-12-18T03:40:16.584Z,15.07
2018-12-18T03:42:45.287Z,14.23
2018-12-18T03:45:14.078Z,14.07
2018-12-18T03:47:42.743Z,15.50
2018-12-18T03:50:11.632Z,15.17
2018-12-18T03:52:40.429Z,13.70
2018-12-18T03:55:09.128Z,15.60
2018-12-18T03:57:37.791Z,14.73
2018-12-18T04:00:09.292Z,14.90
2018-12-18T04:02:38.046Z,15.20
2018-12-18T04:05:08.566Z,14.17
2018-12-18T04:07:37.936Z,14.83
2018-12-18T04:10:07.194Z,15.47
2018-12-18T04:12:35.922Z,15.53
2018-12-18T04:15:05.629Z,17.47
2018-12-18T04:17:34.411Z,15.93
2018-12-18T04:20:03.230Z,15.90
2018-12-18T04:22:32.108Z,16.70
2018-12-18T04:25:00.806Z,16.93
2018-12-18T04:27:29.472Z,16.83
2018-12-18T04:29:58.139Z,15.10
2018-12-18T04:32:26.827Z,15.80
2018-12-18T04:34:55.456Z,15.80
2018-12-18T04:37:24.162Z,15.73
2018-12-18T04:39:52.846Z,16.67
2018-12-18T04:42:21.866Z,15.73
2018-12-18T04:44:50.957Z,16.83
2018-12-18T04:47:19.973Z,17.03
2018-12-18T04:49:48.728Z,16.53
2018-12-18T04:52:18.020Z,17.50
2018-12-18T04:54:46.732Z,17.43
2018-12-18T04:57:15.461Z,15.47
2018-12-18T04:59:44.297Z,15.77
2018-12-18T05:02:13.158Z,15.03
2018-12-18T05:04:42.004Z,18.10
2018-12-18T05:07:10.766Z,16.63
2018-12-18T05:09:39.667Z,17.07
2018-12-18T05:12:08.495Z,17.20
2018-12-18T05:14:37.411Z,16.57
2018-12-18T05:17:06.328Z,16.60
2018-12-18T05:19:35.126Z,17.83
2018-12-18T05:22:04.314Z,17.37
2018-12-18T05:24:33.335Z,18.10
2018-12-18T05:27:02.251Z,16.93
2018-12-18T05:29:31.040Z,17.27
2018-12-18T05:31:59.790Z,16.73
2018-12-18T05:34:28.660Z,18.43
2018-12-18T05:36:57.499Z,17.70
2018-12-18T05:39:26.243Z,17.63
2018-12-18T05:41:55.108Z,17.13
2018-12-18T05:44:23.890Z,17.47
2018-12-18T05:46:52.565Z,17.73
2018-12-18T05:49:21.201Z,16.57
2018-12-18T05:51:49.878Z,17.20
2018-12-18T05:54:18.567Z,16.47
2018-12-18T05:56:47.247Z,18.63
2018-12-18T05:59:15.940Z,16.10
2018-12-18T06:01:45.422Z,17.50
2018-12-18T06:04:14.169Z,18.47
2018-12-18T06:06:42.844Z,17.70
2018-12-18T06:09:11.503Z,18.87
2018-12-18T06:11:40.157Z,17.53
2018-12-18T06:14:08.825Z,18.17
2018-12-18T06:16:37.457Z,18.23
2018-12-18T06:19:06.256Z,19.40
2018-12-18T06:21:34.891Z,18.30
2018-12-18T06:24:03.601Z,17.93
2018-12-18T06:26:32.317Z,17.70
2018-12-18T06:29:01.024Z,18.53
2018-12-18T06:31:29.717Z,17.60
2018-12-18T06:33:58.392Z,19.40
2018-12-18T06:36:27.159Z,18.30
2018-12-18T06:38:55.880Z,18.00
2018-12-18T06:41:24.563Z,19.63
2018-12-18T06:43:54.073Z,19.03
2018-12-18T06:46:22.857Z,18.30
2018-12-18T06:48:51.549Z,20.90
2018-12-18T06:51:20.216Z,18.57
2018-12-18T06:53:48.946Z,19.07
2018-12-18T06:56:17.637Z,18.67
2018-12-18T06:58:46.329Z,18.93
2018-12-18T07:01:14.973Z,18.73
2018-12-18T07:03:43.706Z,17.37
2018-12-18T07:06:12.366Z,18.83
2018-12-18T07:08:41.076Z,19.13
2018-12-18T07:11:09.713Z,19.17
2018-12-18T07:13:38.388Z,18.33
2018-12-18T07:16:07.081Z,18.13
2018-12-18T07:18:35.778Z,18.90
2018-12-18T07:21:04.433Z,18.17
2018-12-18T07:23:33.110Z,18.40
2018-12-18T07:26:01.874Z,19.70
2018-12-18T07:28:30.653Z,20.07
2018-12-18T07:30:59.346Z,20.07
2018-12-18T07:33:28.042Z,18.40
2018-12-18T07:35:56.808Z,20.13
2018-12-18T07:38:25.464Z,20.10
2018-12-18T07:40:54.223Z,20.13
2018-12-18T07:43:22.869Z,20.03
2018-12-18T07:45:51.583Z,18.77
2018-12-18T07:48:20.254Z,18.23
2018-12-18T07:50:48.960Z,19.30
2018-12-18T07:53:17.615Z,17.40
2018-12-18T07:55:46.310Z,19.47
2018-12-18T07:58:15.031Z,19.17
2018-12-18T08:00:43.838Z,19.07
2018-12-18T08:03:12.518Z,18.77
2018-12-18T08:05:41.203Z,20.63
2018-12-18T08:08:09.938Z,20.20
2018-12-18T08:10:38.576Z,19.60
2018-12-18T08:13:07.265Z,19.67
2018-12-18T08:15:35.908Z,20.17
2018-12-18T08:18:04.636Z,18.83
2018-12-18T08:20:33.454Z,19.07
2018-12-18T08:23:02.184Z,19.47
2018-12-18T08:25:30.825Z,20.77
2018-12-18T08:27:59.517Z,19.27
2018-12-18T08:30:28.303Z,20.93
2018-12-18T08:32:57.032Z,20.40
2018-12-18T08:35:25.678Z,20.20
2018-12-18T08:37:54.564Z,19.90
2018-12-18T08:40:23.268Z,20.43
2018-12-18T08:42:51.923Z,19.93
2018-12-18T08:45:20.639Z,21.20
2018-12-18T08:47:49.526Z,31.83
2018-12-18T08:50:18.203Z,25.03
2018-12-18T08:52:46.938Z,23.43
2018-12-18T08:55:15.672Z,18.90
2018-12-18T08:57:44.308Z,19.83
2018-12-18T09:00:13.010Z,21.80
2018-12-18T09:02:41.714Z,19.90
2018-12-18T09:05:10.399Z,18.40
2018-12-18T09:07:39.054Z,19.53
2018-12-18T09:10:09.735Z,18.30
2018-12-18T09:12:38.449Z,19.63
2018-12-18T09:15:13.188Z,18.17
2018-12-18T09:17:47.762Z,18.67
2018-12-18T09:20:16.490Z,19.87
2018-12-18T09:22:45.118Z,18.40
2018-12-18T09:25:13.935Z,19.50
2018-12-18T09:27:42.591Z,19.07
2018-12-18T09:30:11.566Z,19.93
2018-12-18T09:32:40.237Z,18.37
2018-12-18T09:35:08.982Z,18.73
2018-12-18T09:37:37.602Z,19.50
2018-12-18T09:40:07.986Z,20.37
2018-12-18T09:42:42.053Z,18.20
2018-12-18T09:45:11.269Z,18.53
2018-12-18T09:47:39.924Z,21.87
2018-12-18T09:50:09.237Z,19.10
2018-12-18T09:52:37.926Z,18.93
2018-12-18T09:55:08.095Z,19.33
2018-12-18T09:57:42.351Z,18.77
2018-12-18T10:00:11.133Z,20.67
2018-12-18T10:02:40.070Z,19.93
2018-12-18T10:05:10.145Z,19.43
2018-12-18T10:07:38.948Z,19.33
2018-12-18T10:10:08.858Z,20.93
2018-12-18T10:12:46.087Z,18.70
2018-12-18T10:15:15.027Z,19.93
2018-12-18T10:17:43.973Z,19.47
2018-12-18T10:20:13.083Z,19.63
2018-12-18T10:22:41.711Z,19.77
2018-12-18T10:25:10.756Z,19.77
2018-12-18T10:27:39.903Z,17.63
2018-12-18T10:30:09.149Z,19.37
2018-12-18T10:32:38.298Z,19.83
2018-12-18T10:35:07.527Z,18.93
2018-12-18T10:37:36.497Z,18.83
2018-12-18T10:40:07.249Z,17.77
2018-12-18T10:42:36.012Z,19.47
2018-12-18T10:45:05.878Z,18.33
2018-12-18T10:47:39.473Z,19.90
2018-12-18T10:50:08.492Z,18.23
2018-12-18T10:52:37.363Z,18.37
2018-12-18T10:55:06.661Z,18.40
2018-12-18T10:57:35.584Z,18.27
2018-12-18T11:00:08.378Z,18.90
2018-12-18T11:02:37.267Z,17.70
2018-12-18T11:05:06.302Z,17.37
2018-12-18T11:07:35.151Z,17.23
2018-12-18T11:10:04.295Z,17.53
2018-12-18T11:12:40.472Z,16.40
2018-12-18T11:15:10.466Z,17.00
2018-12-18T11:17:39.658Z,15.80
2018-12-18T11:20:08.776Z,14.43
2018-12-18T11:22:38.108Z,14.13
2018-12-18T11:25:07.230Z,14.37
2018-12-18T11:27:36.064Z,14.10
2018-12-18T11:30:05.081Z,15.37
2018-12-18T11:32:34.492Z,15.60
2018-12-18T11:35:04.155Z,15.13
2018-12-18T11:37:32.952Z,15.33
2018-12-18T11:40:11.500Z,16.53
2018-12-18T11:42:40.561Z,16.97
2018-12-18T11:45:09.454Z,15.63
2018-12-18T11:47:38.786Z,14.37
2018-12-18T11:50:07.742Z,15.53
2018-12-18T11:52:37.864Z,15.33
2018-12-18T11:55:07.034Z,17.53
2018-12-18T11:57:36.017Z,16.17
2018-12-18T12:00:08.254Z,15.43
2018-12-18T12:02:42.700Z,15.47
2018-12-18T12:05:08.702Z,15.73
2018-12-18T12:07:37.754Z,16.17
2018-12-18T12:10:07.342Z,16.03
2018-12-18T12:12:36.710Z,16.03
2018-12-18T12:15:06.253Z,14.97
2018-12-18T12:17:35.211Z,16.17
2018-12-18T12:20:04.604Z,16.57
2018-12-18T12:22:35.844Z,16.33
2018-12-18T12:25:05.221Z,16.83
2018-12-18T12:27:38.411Z,15.93
2018-12-18T12:30:09.326Z,15.93
2018-12-18T12:32:38.621Z,16.27
2018-12-18T12:35:07.664Z,15.37
2018-12-18T12:37:38.788Z,16.07
2018-12-18T12:40:08.289Z,16.50
2018-12-18T12:42:37.619Z,15.73
2018-12-18T12:45:07.146Z,16.20
2018-12-18T12:47:36.115Z,17.23
2018-12-18T12:50:06.347Z,15.67
2018-12-18T12:52:35.440Z,15.93
2018-12-18T12:55:04.282Z,15.10
2018-12-18T12:57:33.417Z,16.33
2018-12-18T13:00:02.562Z,17.73
2018-12-18T13:02:31.541Z,17.30
2018-12-18T13:05:00.722Z,17.73
2018-12-18T13:07:29.644Z,17.60
2018-12-18T13:09:58.385Z,17.77
2018-12-18T13:12:29.157Z,17.10
2018-12-18T13:14:58.171Z,16.73
2018-12-18T13:17:27.372Z,17.43
2018-12-18T13:19:56.241Z,17.30
2018-12-18T13:22:25.028Z,16.27
2018-12-18T13:24:53.850Z,16.03
2018-12-18T13:27:24.346Z,14.53
2018-12-18T13:29:53.505Z,15.53
2018-12-18T13:32:22.346Z,15.03
2018-12-18T13:34:51.431Z,15.37
2018-12-18T13:37:20.177Z,15.23
2018-12-18T13:39:48.940Z,14.97
2018-12-18T13:42:17.806Z,15.23
2018-12-18T13:44:46.768Z,15.93
2018-12-18T13:47:16.665Z,14.67
2018-12-18T13:49:45.637Z,15.17
2018-12-18T13:52:15.630Z,15.23
2018-12-18T13:54:44.450Z,14.10
2018-12-18T13:57:16.011Z,14.67
2018-12-18T13:59:44.733Z,14.43
2018-12-18T14:02:13.465Z,15.60
2018-12-18T14:04:42.250Z,14.20
2018-12-18T14:07:13.406Z,14.60
2018-12-18T14:09:42.646Z,13.80
2018-12-18T14:12:11.485Z,14.27
2018-12-18T14:14:40.423Z,13.80
2018-12-18T14:17:09.267Z,14.27
2018-12-18T14:19:38.191Z,13.27
2018-12-18T14:22:07.073Z,14.07
2018-12-18T14:24:35.867Z,12.93
2018-12-18T14:27:04.790Z,15.60
2018-12-18T14:29:33.875Z,14.00
2018-12-18T14:32:02.880Z,15.23
2018-12-18T14:34:31.773Z,15.63
2018-12-18T14:37:02.998Z,13.17
2018-12-18T14:39:32.063Z,17.03
2018-12-18T14:42:01.231Z,15.30
2018-12-18T14:44:30.056Z,16.77
2018-12-18T14:46:59.998Z,18.43
2018-12-18T14:49:28.829Z,16.00
2018-12-18T14:51:57.849Z,16.67
2018-12-18T14:54:26.996Z,15.33
2018-12-18T14:56:55.698Z,16.00
2018-12-18T14:59:24.771Z,16.13
2018-12-18T15:01:53.926Z,15.63
2018-12-18T15:04:23.152Z,15.07
2018-12-18T15:06:53.564Z,15.43
2018-12-18T15:09:23.981Z,14.77
2018-12-18T15:11:53.430Z,13.33
2018-12-18T15:14:22.932Z,13.80
2018-12-18T15:16:51.809Z,13.30
2018-12-18T15:19:21.734Z,13.20
2018-12-18T15:21:53.341Z,15.37
2018-12-18T15:24:22.827Z,13.57
2018-12-18T15:26:51.774Z,13.27
2018-12-18T15:29:22.595Z,14.13
2018-12-18T15:31:51.845Z,14.57
2018-12-18T15:34:20.549Z,12.37
2018-12-18T15:36:49.333Z,12.57
2018-12-18T15:39:18.351Z,14.30
2018-12-18T15:41:47.025Z,12.97
2018-12-18T15:44:15.819Z,12.83
2018-12-18T15:46:44.718Z,13.03
2018-12-18T15:49:13.727Z,13.87
2018-12-18T15:51:42.571Z,12.90
2018-12-18T15:54:11.867Z,12.30
2018-12-18T15:56:40.766Z,11.57
2018-12-18T15:59:10.488Z,12.03
2018-12-18T16:01:39.609Z,13.03
2018-12-18T16:04:08.878Z,12.83
2018-12-18T16:06:37.928Z,13.17
2018-12-18T16:09:08.730Z,13.27
2018-12-18T16:11:37.640Z,13.60
2018-12-18T16:14:06.739Z,13.23
2018-12-18T16:16:35.762Z,14.33
2018-12-18T16:19:04.663Z,14.10
2018-12-18T16:21:33.470Z,14.07
2018-12-18T16:24:02.197Z,12.70
2018-12-18T16:26:30.957Z,14.50
2018-12-18T16:29:01.799Z,14.30
2018-12-18T16:31:31.093Z,14.27
2018-12-18T16:33:59.862Z,15.83
2018-12-18T16:36:28.739Z,13.93
2018-12-18T16:38:58.079Z,14.87
2018-12-18T16:41:27.047Z,13.03
2018-12-18T16:43:55.735Z,15.30
2018-12-18T16:46:24.729Z,14.43
2018-12-18T16:48:54.195Z,14.37
2018-12-18T16:51:23.718Z,14.77
2018-12-18T16:53:52.578Z,14.37
2018-12-18T16:56:21.608Z,13.67
2018-12-18T16:58:50.506Z,14.33
2018-12-18T17:01:19.935Z,13.33
2018-12-18T17:03:48.833Z,12.80
2018-12-18T17:06:17.624Z,13.97
2018-12-18T17:08:47.557Z,15.10
2018-12-18T17:11:16.818Z,13.87
2018-12-18T17:13:46.092Z,14.20
2018-12-18T17:16:15.377Z,14.13
2018-12-18T17:18:44.113Z,14.37
2018-12-18T17:21:13.456Z,14.63
2018-12-18T17:23:42.584Z,13.17
2018-12-18T17:26:11.575Z,14.23
2018-12-18T17:28:40.627Z,15.57
2018-12-18T17:31:09.521Z,14.80
2018-12-18T17:33:38.431Z,15.27
2018-12-18T17:36:07.226Z,15.03
2018-12-18T17:38:36.055Z,14.23
2018-12-18T17:41:05.278Z,15.23
2018-12-18T17:43:36.821Z,15.17
2018-12-18T17:46:06.263Z,15.20
2018-12-18T17:48:35.514Z,14.87
2018-12-18T17:51:04.503Z,16.67
2018-12-18T17:53:33.297Z,15.53
2018-12-18T17:56:03.250Z,14.43
2018-12-18T17:58:32.267Z,15.03
2018-12-18T18:01:01.976Z,15.00
2018-12-18T18:03:30.967Z,16.73
2018-12-18T18:05:59.957Z,15.43
2018-12-18T18:08:28.725Z,15.20
2018-12-18T18:10:58.659Z,15.20
2018-12-18T18:13:27.729Z,15.70
2018-12-18T18:15:56.907Z,15.07
2018-12-18T18:18:26.365Z,15.20
2018-12-18T18:20:55.260Z,14.97
2018-12-18T18:23:24.178Z,14.63
2018-12-18T18:25:54.189Z,14.87
2018-12-18T18:28:23.202Z,15.47
2018-12-18T18:30:51.920Z,15.87
2018-12-18T18:33:21.105Z,15.93
2018-12-18T18:36:03.871Z,15.03
2018-12-18T18:38:36.270Z,13.73
2018-12-18T18:41:05.861Z,13.87
2018-12-18T18:43:34.814Z,13.77
2018-12-18T18:46:04.380Z,15.77
2018-12-18T18:48:33.295Z,15.80
2018-12-18T18:51:02.161Z,14.63
2018-12-18T18:53:31.163Z,16.43
2018-12-18T18:56:00.294Z,15.33
2018-12-18T18:58:28.958Z,14.13
2018-12-18T19:00:57.840Z,13.40
2018-12-18T19:03:26.619Z,14.40
2018-12-18T19:05:56.022Z,15.07
2018-12-18T19:08:24.756Z,15.23
2018-12-18T19:10:53.499Z,14.97
2018-12-18T19:13:22.173Z,15.20
2018-12-18T19:15:51.122Z,14.33
2018-12-18T19:18:19.817Z,14.57
2018-12-18T19:20:49.635Z,14.07
2018-12-18T19:23:19.960Z,15.10
2018-12-18T19:25:48.805Z,16.00
2018-12-18T19:28:17.491Z,16.13
2018-12-18T19:30:46.848Z,14.60
2018-12-18T19:33:15.651Z,14.47
2018-12-18T19:35:44.339Z,15.67
2018-12-18T19:38:13.042Z,14.93
2018-12-18T19:40:41.748Z,16.80
2018-12-18T19:43:11.416Z,15.03
2018-12-18T19:45:40.490Z,15.40
2018-12-18T19:48:09.407Z,15.13
2018-12-18T19:50:38.331Z,16.13
2018-12-18T19:53:07.378Z,15.87
2018-12-18T19:55:36.308Z,15.33
2018-12-18T19:58:05.037Z,15.43
2018-12-18T20:00:34.303Z,16.13
2018-12-18T20:03:03.015Z,16.33
2018-12-18T20:05:31.941Z,17.27
2018-12-18T20:08:01.329Z,16.53
2018-12-18T20:10:30.516Z,17.47
2018-12-18T20:13:01.271Z,16.33
2018-12-18T20:15:30.198Z,16.53
2018-12-18T20:17:59.520Z,15.00
2018-12-18T20:20:28.318Z,15.80
2018-12-18T20:22:57.030Z,14.60
2018-12-18T20:25:25.758Z,14.97
2018-12-18T20:27:54.781Z,17.60
2018-12-18T20:30:23.582Z,17.23
2018-12-18T20:32:52.337Z,17.77
2018-12-18T20:35:21.129Z,16.53
2018-12-18T20:37:49.857Z,18.00
2018-12-18T20:40:18.657Z,16.70
2018-12-18T20:42:47.333Z,17.23
2018-12-18T20:45:16.038Z,18.67
2018-12-18T20:47:44.800Z,18.83
2018-12-18T20:50:15.149Z,16.77
2018-12-18T20:52:43.845Z,16.57
2018-12-18T20:55:12.618Z,17.17
2018-12-18T20:57:42.255Z,18.83
2018-12-18T21:00:12.759Z,17.60
2018-12-18T21:02:41.618Z,16.40
2018-12-18T21:05:10.467Z,18.23
2018-12-18T21:07:39.903Z,17.97
2018-12-18T21:10:09.335Z,16.20
2018-12-18T21:12:38.099Z,17.00
2018-12-18T21:15:07.424Z,17.23
2018-12-18T21:17:36.210Z,16.90
2018-12-18T21:20:06.351Z,17.40
2018-12-18T21:22:35.061Z,18.07
2018-12-18T21:25:03.950Z,18.73
2018-12-18T21:27:34.728Z,16.93
2018-12-18T21:30:03.610Z,17.47
2018-12-18T21:32:33.068Z,17.63
2018-12-18T21:35:01.890Z,19.10
2018-12-18T21:37:31.793Z,17.70
2018-12-18T21:40:00.721Z,17.97
2018-12-18T21:42:29.482Z,18.10
2018-12-18T21:44:58.371Z,19.07
2018-12-18T21:47:27.081Z,20.33
2018-12-18T21:49:55.781Z,19.07
2018-12-18T21:52:24.470Z,17.83
2018-12-18T21:54:53.239Z,17.07
2018-12-18T21:57:22.044Z,19.27
2018-12-18T21:59:51.317Z,18.73
2018-12-18T22:02:20.046Z,18.40
2018-12-18T22:04:48.690Z,19.40
2018-12-18T22:07:17.485Z,19.37
2018-12-18T22:09:46.202Z,18.93
2018-12-18T22:12:15.044Z,19.87
2018-12-18T22:14:43.803Z,20.77
2018-12-18T22:17:12.511Z,21.63
2018-12-18T22:19:41.240Z,19.50
2018-12-18T22:22:09.948Z,21.77
2018-12-18T22:24:38.582Z,20.30
2018-12-18T22:27:07.246Z,21.13
2018-12-18T22:29:37.979Z,21.40
2018-12-18T22:32:06.731Z,21.00
2018-12-18T22:34:35.553Z,21.70
2018-12-18T22:37:04.203Z,22.87
2018-12-18T22:39:32.934Z,23.77
2018-12-18T22:42:01.693Z,23.53
2018-12-18T22:44:30.567Z,22.87
2018-12-18T22:46:59.220Z,25.23
2018-12-18T22:49:30.012Z,25.13
2018-12-18T22:51:58.706Z,24.20
2018-12-18T22:54:27.361Z,25.80
2018-12-18T22:56:56.065Z,25.07
2018-12-18T22:59:24.706Z,25.90
2018-12-18T23:01:54.448Z,26.23
2018-12-18T23:04:23.167Z,26.23
2018-12-18T23:06:51.998Z,26.23
2018-12-18T23:09:20.852Z,26.27
2018-12-18T23:11:49.639Z,28.97
2018-12-18T23:14:18.335Z,27.87
2018-12-18T23:16:47.032Z,27.07
2018-12-18T23:19:15.723Z,28.27
2018-12-18T23:21:44.860Z,30.27
2018-12-18T23:24:13.572Z,28.70
2018-12-18T23:26:42.956Z,27.60
2018-12-18T23:29:11.674Z,27.13
2018-12-18T23:31:40.362Z,29.43
2018-12-18T23:34:09.075Z,30.07
2018-12-18T23:36:37.781Z,29.67
2018-12-18T23:39:08.297Z,32.77
2018-12-18T23:41:37.261Z,31.63
2018-12-18T23:44:05.990Z,31.93
2018-12-18T23:46:34.883Z,31.83
2018-12-18T23:49:03.584Z,31.60
2018-12-18T23:51:32.343Z,32.67
2018-12-18T23:54:01.028Z,32.63
2018-12-18T23:56:29.661Z,31.80
2018-12-18T23:58:58.498Z,31.43
